Date,TemperatureHighF,TemperatureAvgF,TemperatureLowF,DewpointHighF,DewpointAvgF,DewpointLowF,HumidityHigh,HumidityAvg,HumidityLow,PressureMaxIn,PressureMinIn,WindSpeedMaxMPH,WindSpeedAvgMPH,GustSpeedMaxMPH,PrecipitationSumIn
2013-1-1,36.1,31.0,19.9,26.0,17.3,7.0,70,58,46,29.95,29.76,19,5,28,0.00
2013-1-2,30.1,20.4,11.7,13.0,8.4,3.0,78,61,49,30.13,29.92,13,3,19,0.00
2013-1-3,24.2,15.8,5.8,12.0,-0.1,-7.0,73,51,27,30.16,30.02,8,3,22,0.00
2013-1-4,37.3,30.2,21.1,23.0,19.2,12.0,76,64,52,30.01,29.85,12,4,22,0.00
2013-1-5,41.1,32.8,22.9,24.0,19.7,18.0,83,60,42,30.27,29.89,11,2,24,0.00
2013-1-6,42.5,31.9,23.5,30.0,25.6,19.0,92,78,56,30.24,29.95,12,2,16,0.00
2013-1-7,39.6,32.2,22.6,29.0,22.5,16.0,86,69,42,30.41,30.00,10,2,18,0.00
2013-1-8,46.7,35.6,21.3,29.0,26.4,19.0,91,70,49,30.39,30.30,17,3,32,0.00
2013-1-9,44.4,35.3,23.6,37.0,29.3,22.0,95,80,60,30.41,30.04,12,2,20,0.00
2013-1-10,45.4,40.4,31.5,32.0,24.0,22.0,70,53,40,30.54,30.09,18,5,31,0.00
2013-1-11,37.6,32.9,25.8,36.0,27.6,22.0,95,81,69,30.54,30.21,9,1,12,0.21
2013-1-12,42.7,40.1,37.1,42.0,39.2,36.0,97,96,95,30.24,30.14,5,1,7,0.05
2013-1-13,52.5,46.5,40.7,50.0,45.1,40.0,98,95,88,30.17,30.02,7,2,14,0.00
2013-1-14,58.9,50.4,39.6,52.0,42.3,29.0,97,76,45,30.26,29.91,16,4,17,0.01
2013-1-15,39.6,36.4,33.6,31.0,27.0,24.0,84,69,56,30.32,30.22,9,2,11,0.03
2013-1-16,33.6,31.5,29.2,32.0,29.1,24.0,96,91,68,30.25,29.84,5,1,10,0.00
2013-1-17,40.7,34.5,29.5,32.0,26.6,15.0,95,75,53,30.09,29.86,12,3,19,0.31
2013-1-18,30.1,22.2,17.2,16.0,2.9,-5.0,60,44,29,30.48,30.06,15,5,24,0.00
2013-1-19,46.0,35.4,18.9,32.0,22.8,5.0,75,61,44,30.40,29.92,16,5,32,0.00
2013-1-20,52.7,41.6,27.8,33.0,25.2,8.0,74,54,31,29.95,29.58,34,7,38,0.00
2013-1-21,27.6,22.7,19.3,21.0,4.5,-99.9,90,55,41,30.11,29.81,14,-52,20,0.00
2013-1-22,21.8,18.9,11.8,20.0,5.0,-6.0,92,58,32,30.10,29.77,14,4,22,0.00
2013-1-23,14.3,9.7,5.1,2.0,-6.7,-11.0,66,48,37,30.18,30.09,15,5,27,0.00
2013-1-24,18.4,9.7,1.0,-7.0,-8.6,-10.0,66,45,29,30.25,30.10,18,4,27,0.00
2013-1-25,22.0,15.3,7.8,12.0,-5.7,-10.0,85,41,26,30.34,30.07,9,3,18,0.00
2013-1-26,23.0,16.3,9.9,12.0,3.4,-8.0,89,60,31,30.27,30.02,17,5,28,0.00
2013-1-27,29.3,19.9,10.5,3.0,1.0,-1.0,67,46,29,30.49,30.27,15,4,23,0.00
2013-1-28,30.5,24.4,18.7,26.0,12.6,0.0,94,64,35,30.48,30.02,6,1,11,0.00
2013-1-29,33.0,29.7,25.8,32.0,28.3,24.0,96,94,92,30.21,30.02,7,2,8,0.15
2013-1-30,59.6,48.7,32.4,57.0,47.2,31.0,98,94,88,30.17,29.49,19,6,32,0.22
2013-1-31,60.6,47.7,30.2,58.0,36.6,12.0,96,68,34,29.62,29.02,28,10,51,0.69
2013-2-1,30.2,27.0,20.6,17.0,8.6,4.0,66,47,34,30.11,29.62,21,6,23,0.00
2013-2-2,28.7,23.3,16.3,14.0,7.1,2.0,65,50,38,30.27,30.07,12,4,18,0.00
2013-2-3,27.6,23.7,19.4,21.0,18.8,15.0,89,81,68,30.07,29.75,7,3,11,0.00
2013-2-4,27.7,23.1,19.0,20.0,10.6,5.0,88,61,38,29.98,29.75,15,4,27,0.00
2013-2-5,24.5,22.4,20.0,21.0,15.3,10.0,91,75,63,30.04,29.95,6,1,7,0.00
2013-2-6,37.3,29.0,23.4,26.0,17.2,2.0,92,65,36,30.31,29.93,15,4,21,0.04
2013-2-7,29.9,23.8,17.1,12.0,4.9,2.0,67,46,32,30.54,30.32,9,2,11,0.00
2013-2-8,31.5,27.8,17.4,30.0,24.5,12.0,96,87,62,30.49,29.54,25,7,32,0.00
2013-2-9,24.3,19.0,14.5,19.0,13.0,2.0,94,79,57,30.22,29.52,23,10,32,0.00
2013-2-10,39.7,22.9,9.9,15.0,3.5,-2.0,80,48,19,30.41,30.22,8,2,13,0.00
2013-2-11,46.3,34.1,15.6,45.0,31.1,10.0,96,88,75,30.38,29.63,6,2,12,0.24
2013-2-12,42.7,38.6,33.2,40.0,28.3,23.0,91,67,52,29.92,29.64,12,4,27,0.00
2013-2-13,42.9,35.2,27.1,27.0,23.7,20.0,80,64,46,29.89,29.71,7,2,13,0.00
2013-2-14,44.7,35.0,28.4,27.0,22.7,18.0,90,63,36,30.02,29.73,8,2,13,0.00
2013-2-15,50.4,39.0,29.4,35.0,31.7,25.0,94,76,51,30.03,29.93,13,3,19,0.00
2013-2-16,35.1,32.6,29.5,31.0,28.1,19.0,95,84,61,29.96,29.69,15,4,23,0.03
2013-2-17,29.1,21.3,15.6,22.0,9.2,-1.0,91,63,34,29.72,29.42,23,9,46,0.00
2013-2-18,29.6,21.3,13.6,1.0,-1.1,-4.0,53,39,24,30.20,29.73,19,7,29,0.00
2013-2-19,47.6,35.5,19.3,43.0,24.7,1.0,96,67,39,30.21,29.61,13,2,22,0.34
2013-2-20,41.2,31.3,25.1,39.0,18.7,8.0,93,61,41,29.82,29.57,16,5,24,0.01
2013-2-21,32.3,26.8,23.4,16.0,12.7,11.0,68,56,45,30.22,29.80,21,7,29,0.00
2013-2-22,37.3,30.2,22.1,24.0,19.9,16.0,80,66,50,30.39,30.23,11,4,17,0.00
2013-2-23,37.1,32.9,29.7,32.0,28.2,24.0,95,83,71,30.34,29.90,9,2,13,0.31
2013-2-24,34.3,32.9,30.5,33.0,31.9,30.0,96,96,94,29.90,29.69,13,5,19,0.55
2013-2-25,37.6,33.4,28.7,33.0,30.3,28.0,97,89,75,30.26,29.90,6,2,14,0.09
2013-2-26,42.8,36.8,32.2,35.0,29.0,24.0,93,75,50,30.34,30.15,10,3,15,0.00
2013-2-27,42.4,39.2,35.8,41.0,37.5,31.0,96,93,81,30.14,29.59,19,7,28,1.66
2013-2-28,44.4,37.6,33.2,39.0,35.1,32.0,96,91,78,29.66,29.54,4,1,8,0.00
2013-3-1,43.2,37.4,31.8,33.0,29.2,26.0,95,74,55,29.70,29.54,18,4,20,0.00
2013-3-2,39.6,36.3,33.0,28.0,26.3,25.0,78,67,59,29.70,29.64,9,4,14,0.00
2013-3-3,40.4,34.1,30.3,29.0,26.3,23.0,91,74,58,29.66,29.57,7,3,13,0.00
2013-3-4,38.2,32.6,27.0,26.0,21.9,19.0,80,65,54,29.76,29.62,18,6,25,0.00
2013-3-5,43.4,35.9,28.8,31.0,26.3,21.0,86,69,54,30.08,29.76,13,4,19,0.00
2013-3-6,38.9,35.8,33.6,34.0,32.1,29.0,94,86,70,30.08,30.02,26,8,31,0.10
2013-3-7,34.7,31.2,29.2,31.0,29.2,27.0,95,92,82,30.02,29.97,21,10,29,0.07
2013-3-8,37.9,31.4,28.5,32.0,28.1,23.0,97,88,61,30.14,29.93,20,8,25,0.02
2013-3-9,46.0,36.4,28.0,29.0,24.4,20.0,93,63,43,30.36,30.14,16,5,19,0.03
2013-3-10,46.5,35.2,25.9,32.0,29.0,24.0,95,80,54,30.42,30.33,7,3,12,0.00
2013-3-11,50.8,41.7,34.2,41.0,36.7,31.0,94,83,61,30.35,30.17,13,4,15,0.00
2013-3-12,53.9,49.5,42.1,52.0,47.6,41.0,96,93,85,30.17,29.75,16,6,34,0.66
2013-3-13,50.7,42.6,32.2,49.0,29.6,20.0,95,63,34,29.81,29.72,11,4,21,0.00
2013-3-14,33.6,29.5,22.5,24.0,13.9,5.0,77,53,41,29.87,29.74,16,5,29,0.00
2013-3-15,40.4,29.8,19.9,27.0,13.5,4.0,77,53,26,29.90,29.67,12,4,21,0.00
2013-3-16,39.6,33.7,27.6,27.0,15.2,7.0,78,49,28,29.88,29.72,9,2,12,0.00
2013-3-17,36.4,30.7,22.8,17.0,10.2,0.0,72,45,22,30.32,29.88,15,4,26,0.00
2013-3-18,36.0,27.5,17.7,24.0,7.7,-2.0,83,45,26,30.48,30.23,7,3,13,0.00
2013-3-19,36.4,32.1,27.8,35.0,30.5,25.0,96,93,87,30.22,29.60,14,6,21,0.54
2013-3-20,37.2,31.3,26.4,27.0,19.9,16.0,92,64,43,29.83,29.71,17,4,22,0.00
2013-3-21,34.7,29.7,23.6,27.0,22.6,17.0,87,75,57,29.84,29.62,10,2,11,0.00
2013-3-22,37.9,32.3,26.2,25.0,17.8,14.0,84,56,39,29.78,29.63,14,4,25,0.00
2013-3-23,40.8,34.8,28.7,24.0,19.3,16.0,75,55,38,29.83,29.68,18,6,28,0.00
2013-3-24,46.4,37.7,30.0,26.0,21.7,18.0,75,54,37,29.85,29.73,11,4,16,0.00
2013-3-25,42.1,36.5,30.3,32.0,29.0,25.0,89,74,59,29.78,29.51,19,6,24,0.01
2013-3-26,46.4,38.7,34.3,31.0,25.0,20.0,86,59,37,29.81,29.53,14,4,17,0.00
2013-3-27,51.8,41.2,29.7,30.0,22.9,19.0,68,50,31,29.88,29.76,15,4,22,0.00
2013-3-28,47.4,41.6,35.9,34.0,31.3,28.0,90,68,47,30.04,29.88,16,4,20,0.00
2013-3-29,55.2,46.0,36.0,34.0,29.9,25.0,82,56,33,30.07,29.98,13,4,17,0.00
2013-3-30,55.4,46.4,37.2,32.0,22.5,13.0,72,43,20,30.12,30.02,11,3,21,0.00
2013-3-31,57.9,43.3,28.6,43.0,27.6,19.0,92,58,24,30.14,29.73,19,4,27,0.06
2013-4-1,60.1,46.3,34.4,45.0,37.1,11.0,96,73,36,29.82,29.52,15,5,26,0.30
2013-4-2,39.2,33.4,27.8,16.0,12.3,7.0,60,43,27,29.99,29.83,19,5,26,0.00
2013-4-3,42.9,34.8,29.6,17.0,12.6,9.0,55,41,25,30.20,29.98,20,7,32,0.00
2013-4-4,54.3,39.9,26.6,29.0,16.7,8.0,74,43,18,30.33,30.09,13,4,18,0.00
2013-4-5,59.2,46.0,36.5,32.0,25.9,17.0,78,50,20,30.09,29.64,16,4,24,0.00
2013-4-6,46.3,37.8,31.6,26.0,10.1,0.0,64,35,15,30.35,29.90,21,5,26,0.00
2013-4-7,51.8,42.4,25.5,41.0,29.1,21.0,87,62,34,30.34,30.05,16,6,31,0.00
2013-4-8,66.8,52.2,42.8,43.0,40.7,35.0,94,69,33,30.10,29.98,8,3,16,0.00
2013-4-9,71.2,56.7,46.0,52.0,43.5,38.0,96,66,35,30.10,29.87,15,4,24,0.00
2013-4-10,66.9,52.0,44.4,50.0,45.1,43.0,94,78,53,30.01,29.86,14,3,17,0.24
2013-4-11,52.8,47.0,41.2,46.0,40.4,28.0,95,80,48,30.15,29.84,13,4,13,0.03
2013-4-12,40.6,38.8,37.0,37.0,34.2,29.0,94,84,65,30.16,29.78,21,6,26,0.37
2013-4-13,52.9,44.2,35.1,37.0,34.5,32.0,95,71,46,29.95,29.75,15,4,18,0.03
2013-4-14,51.3,44.7,38.9,38.0,30.9,24.0,86,61,37,30.24,29.94,12,3,24,0.00
2013-4-15,55.6,44.4,32.6,37.0,31.0,26.0,86,61,39,30.42,30.24,12,3,15,0.00
2013-4-16,61.9,49.9,35.6,50.0,41.5,34.0,95,75,50,30.42,30.11,23,5,29,0.00
2013-4-17,66.1,57.0,44.8,52.0,38.6,25.0,87,56,22,30.34,30.09,15,5,20,0.00
2013-4-18,59.0,48.9,37.2,46.0,36.5,28.0,94,67,32,30.43,30.17,14,4,23,0.00
2013-4-19,71.4,60.6,50.3,62.0,57.0,46.0,97,88,68,30.17,29.71,23,6,31,0.02
2013-4-20,62.5,53.0,44.4,61.0,40.5,26.0,94,66,38,30.24,29.64,17,5,28,0.55
2013-4-21,52.1,42.1,33.0,31.0,22.0,17.0,77,47,25,30.69,30.25,15,5,28,0.00
2013-4-22,50.1,41.7,32.4,33.0,29.3,24.0,89,64,37,30.74,30.59,18,6,23,0.00
2013-4-23,41.4,40.1,37.8,40.0,37.2,31.0,95,89,73,30.59,30.12,14,6,20,0.02
2013-4-24,73.4,53.3,40.0,48.0,43.3,39.0,95,73,32,30.11,29.83,16,6,20,0.01
2013-4-25,62.5,54.0,45.2,51.0,34.0,18.0,92,53,20,30.28,29.87,16,4,21,0.04
2013-4-26,62.5,50.3,37.2,39.0,33.3,24.0,82,55,33,30.43,30.29,11,3,17,0.00
2013-4-27,61.6,48.7,35.6,42.0,36.4,34.0,95,67,36,30.43,30.32,7,2,18,0.00
2013-4-28,64.6,52.3,36.4,42.0,34.3,26.0,94,56,30,30.36,30.25,17,3,20,0.00
2013-4-29,63.8,54.6,44.8,46.0,36.9,26.0,92,56,26,30.30,30.22,13,4,19,0.00
2013-4-30,68.1,54.6,39.0,39.0,28.3,20.0,78,41,18,30.37,30.27,9,2,15,0.00
2013-5-1,68.1,53.9,36.1,45.0,35.8,30.0,86,55,31,30.48,30.38,12,3,15,0.00
2013-5-2,75.2,56.8,41.2,46.0,40.7,36.0,94,60,25,30.48,30.33,14,3,20,0.00
2013-5-3,57.7,49.2,40.6,43.0,39.8,37.0,87,71,57,30.51,30.39,14,5,22,0.00
2013-5-4,58.5,48.7,38.3,43.0,35.7,23.0,93,65,26,30.39,30.30,16,4,22,0.00
2013-5-5,61.4,48.5,34.8,42.0,38.3,33.0,95,71,44,30.34,30.24,10,4,15,0.00
2013-5-6,69.9,54.6,43.1,50.0,45.1,40.0,91,72,46,30.30,30.16,8,2,15,0.00
2013-5-7,73.1,60.0,42.5,58.0,51.4,41.0,95,76,54,30.20,30.11,11,2,18,0.00
2013-5-8,69.5,61.6,54.9,62.0,58.2,53.0,97,89,71,30.20,30.05,12,3,25,0.38
2013-5-9,67.0,60.0,56.4,61.0,57.7,55.0,97,92,70,30.05,29.88,6,1,12,0.34
2013-5-10,79.7,66.3,54.3,59.0,55.3,52.0,97,71,40,29.97,29.90,8,2,11,0.00
2013-5-11,70.8,62.0,56.7,61.0,58.0,53.0,95,87,68,29.94,29.72,11,3,24,0.11
2013-5-12,71.1,60.5,48.4,60.0,50.8,33.0,97,74,41,29.84,29.59,12,3,24,0.03
2013-5-13,57.1,49.0,39.2,34.0,29.8,26.0,74,49,33,30.05,29.84,11,3,17,0.00
2013-5-14,57.3,48.1,36.8,33.0,30.0,27.0,78,52,33,30.07,30.00,9,2,16,0.00
2013-5-15,63.2,50.6,33.6,52.0,39.2,30.0,92,68,35,30.08,29.71,17,3,22,0.04
2013-5-16,80.2,66.7,51.3,51.0,44.0,35.0,95,51,20,29.80,29.66,12,3,22,0.00
2013-5-17,68.8,58.5,48.5,47.0,41.9,37.0,81,56,34,30.23,29.81,12,3,20,0.00
2013-5-18,71.5,58.7,41.8,50.0,43.7,37.0,94,62,30,30.32,30.24,10,2,16,0.00
2013-5-19,69.4,57.4,45.5,54.0,49.4,44.0,96,77,47,30.36,30.24,11,2,19,0.09
2013-5-20,82.2,68.1,54.9,67.0,61.0,54.0,97,80,53,30.23,29.93,7,2,12,0.02
2013-5-21,86.2,66.5,51.2,69.0,60.9,50.0,97,84,52,30.00,29.83,14,2,18,0.07
2013-5-22,73.3,60.5,50.2,66.0,57.4,49.0,96,90,77,30.03,29.87,9,2,17,0.03
2013-5-23,74.6,66.8,59.4,68.0,64.2,58.0,97,91,77,29.93,29.82,12,4,23,0.35
2013-5-24,69.1,61.8,49.1,65.0,60.3,48.0,97,94,87,29.83,29.67,7,3,18,0.76
2013-5-25,50.7,46.3,40.2,48.0,45.2,39.0,97,96,90,29.82,29.73,12,4,21,0.27
2013-5-26,58.1,48.4,39.4,43.0,39.1,37.0,96,72,49,30.14,29.76,17,5,26,0.01
2013-5-27,70.7,56.6,39.9,44.0,38.3,32.0,94,56,25,30.18,30.09,11,2,21,0.00
2013-5-28,74.4,59.8,43.1,55.0,46.2,41.0,93,65,35,30.24,30.17,9,2,12,0.00
2013-5-29,74.0,63.9,56.7,66.0,60.4,55.0,97,89,74,30.20,30.00,11,3,24,0.90
2013-5-30,87.7,75.9,62.3,71.0,66.7,61.0,97,75,51,30.11,30.01,8,2,15,0.99
2013-5-31,91.7,80.1,66.5,70.0,66.2,60.0,93,65,40,30.10,29.96,10,2,16,0.00
2013-6-1,87.9,77.5,64.4,69.0,65.3,61.0,90,68,47,30.00,29.89,13,3,21,0.00
2013-6-2,85.2,74.6,66.6,69.0,65.4,63.0,91,74,51,29.91,29.77,16,4,33,0.00
2013-6-3,74.1,66.9,60.6,70.0,64.4,57.0,97,92,81,29.86,29.78,4,1,9,1.11
2013-6-4,69.9,60.2,48.9,55.0,46.0,42.0,89,62,41,30.10,29.84,11,3,21,0.00
2013-6-5,72.5,60.6,46.1,51.0,47.1,42.0,95,65,38,30.20,30.10,8,2,14,0.00
2013-6-6,70.5,61.4,50.1,56.0,50.3,44.0,92,69,39,30.20,30.11,10,2,16,0.01
2013-6-7,59.8,56.3,53.5,58.0,54.8,53.0,97,94,86,30.10,29.80,9,3,15,3.90
2013-6-8,76.5,62.8,52.7,65.0,57.8,52.0,98,85,64,30.02,29.61,10,3,17,0.96
2013-6-9,77.7,67.3,56.1,58.0,56.0,53.0,94,70,45,30.18,30.02,9,2,13,0.00
2013-6-10,68.8,61.7,55.7,62.0,57.7,54.0,95,87,69,30.20,30.01,8,3,14,0.80
2013-6-11,68.8,59.9,57.1,63.0,58.2,56.0,97,94,81,29.99,29.57,8,3,12,1.43
2013-6-12,68.9,62.5,54.9,58.0,53.9,51.0,97,75,56,29.83,29.59,19,5,29,0.00
2013-6-13,62.9,55.8,50.3,57.0,52.9,49.0,96,90,76,29.84,29.66,10,2,15,0.51
2013-6-14,71.8,58.9,51.1,57.0,52.5,50.0,97,81,55,29.79,29.62,12,4,18,1.59
2013-6-15,76.3,66.0,53.8,54.0,48.7,40.0,89,58,27,29.96,29.80,9,2,16,0.00
2013-6-16,74.5,66.1,51.9,63.0,55.2,48.0,88,69,49,29.96,29.74,11,2,15,0.00
2013-6-17,83.8,71.0,60.7,65.0,60.9,57.0,95,73,44,29.91,29.79,15,3,27,0.12
2013-6-18,80.3,64.3,57.2,64.0,59.4,56.0,97,86,49,29.95,29.84,14,2,19,0.45
2013-6-19,74.0,63.5,54.2,58.0,53.2,47.0,98,73,41,30.16,29.90,12,3,15,0.02
2013-6-20,77.4,65.5,50.4,57.0,52.0,47.0,97,66,36,30.27,30.17,8,2,12,0.00
2013-6-21,81.1,69.1,56.9,65.0,58.8,52.0,90,71,53,30.29,30.20,13,2,13,0.00
2013-6-22,81.5,71.3,62.6,62.0,57.6,53.0,74,63,47,30.24,30.14,12,2,14,0.00
2013-6-23,86.4,75.2,63.4,71.0,64.8,57.0,84,71,54,30.19,30.03,8,2,17,0.00
2013-6-24,90.6,79.2,68.0,74.0,70.0,66.0,95,75,49,30.05,29.90,9,2,20,0.10
2013-6-25,88.9,77.1,66.1,73.0,68.3,64.0,95,76,51,29.95,29.75,12,2,15,0.02
2013-6-26,99.2,79.5,69.6,73.0,42.8,-99.9,92,67,59,29.86,29.74,7,1,13,0.07
2013-6-27,99.5,67.9,63.4,68.0,30.3,-99.9,98,75,90,29.86,29.75,8,-54,8,0.01
2013-6-28,79.8,72.0,64.4,73.0,69.0,64.0,99,91,74,29.74,29.52,13,4,19,0.28
2013-6-29,80.2,73.4,69.0,71.0,68.8,67.0,99,86,65,29.74,29.52,9,3,20,0.00
2013-6-30,80.8,74.4,70.4,73.0,70.1,68.0,96,87,75,29.95,29.74,14,3,15,0.07
2013-7-1,81.3,73.8,70.2,75.0,71.6,69.0,98,93,77,30.10,29.95,9,2,18,0.09
2013-7-2,82.9,75.8,72.1,74.0,72.1,71.0,96,88,73,30.20,30.09,9,2,14,0.00
2013-7-3,86.3,77.2,71.1,74.0,71.7,69.0,94,84,65,30.23,30.16,18,3,18,0.00
2013-7-4,89.0,80.7,72.2,77.0,73.8,71.0,97,80,62,30.22,30.12,11,2,13,0.00
2013-7-5,90.5,82.3,73.7,76.0,73.3,71.0,90,75,55,30.18,30.06,9,2,14,0.00
2013-7-6,89.7,81.4,74.7,76.0,73.1,71.0,89,77,56,30.10,29.99,7,2,14,0.00
2013-7-7,92.0,80.0,71.3,76.0,73.1,69.0,94,81,58,30.04,29.91,6,1,17,0.07
2013-7-8,88.6,78.2,67.2,75.0,71.5,66.0,97,81,56,30.05,29.92,8,2,13,0.02
2013-7-9,78.2,70.1,65.6,70.0,66.9,65.0,98,90,69,30.11,30.04,5,2,11,0.00
2013-7-10,83.7,74.8,68.1,75.0,71.3,67.0,98,89,73,30.07,29.81,11,3,20,0.01
2013-7-11,79.8,74.9,69.7,74.0,72.0,68.0,96,90,80,29.92,29.80,5,1,9,0.71
2013-7-12,72.4,69.4,66.2,69.0,63.4,60.0,94,81,72,30.19,29.92,16,4,17,0.00
2013-7-13,76.6,69.9,64.7,73.0,67.9,62.0,97,93,86,30.31,30.19,6,2,8,0.04
2013-7-14,88.3,80.1,72.4,74.0,72.8,71.0,98,80,58,30.31,30.20,6,1,10,0.00
2013-7-15,90.2,81.1,73.6,76.0,73.3,71.0,95,79,56,30.22,30.11,8,1,10,0.00
2013-7-16,91.1,81.6,70.6,73.0,70.2,66.0,93,70,45,30.17,30.11,7,2,16,0.00
2013-7-17,92.1,81.5,70.7,76.0,72.1,69.0,96,75,50,30.18,30.04,7,2,12,0.00
2013-7-18,93.4,83.9,75.6,76.0,72.9,69.0,86,71,48,30.03,29.94,6,2,10,0.00
2013-7-19,134.9,94.6,75.1,77.0,49.2,-10.0,93,55,1,29.95,29.75,10,1,15,0.00
2013-7-20,91.0,81.4,73.3,77.0,75.1,71.0,92,82,61,29.82,29.66,10,2,15,0.34
2013-7-21,83.8,76.2,69.9,71.0,66.8,64.0,93,73,55,29.99,29.82,8,2,10,0.00
2013-7-22,83.1,73.3,66.5,71.0,68.1,65.0,96,84,60,30.00,29.88,8,2,13,0.00
2013-7-23,85.3,73.7,70.1,77.0,71.8,69.0,99,94,74,29.87,29.55,11,2,17,1.14
2013-7-24,83.1,75.7,69.2,73.0,68.3,59.0,98,79,58,29.94,29.59,8,2,15,0.01
2013-7-25,68.6,60.5,57.7,58.0,55.3,50.0,98,83,66,30.09,29.94,11,4,16,0.30
2013-7-26,70.5,62.9,58.6,67.0,61.8,58.0,99,96,86,30.05,29.96,13,3,19,0.60
2013-7-27,81.5,70.8,60.0,68.0,63.9,60.0,99,81,55,30.07,30.01,9,2,12,0.01
2013-7-28,84.3,72.9,65.4,72.0,67.2,64.0,97,83,56,30.03,29.96,6,2,10,0.00
2013-7-29,82.8,72.8,67.4,74.0,69.1,65.0,97,88,69,30.05,29.97,10,1,16,1.35
2013-7-30,79.6,70.4,60.7,65.0,60.0,58.0,93,71,47,30.11,30.04,8,2,15,0.00
2013-7-31,81.1,70.9,59.3,65.0,60.5,57.0,93,72,48,30.15,30.05,6,1,9,0.00
2013-8-1,78.3,68.3,61.6,67.0,62.6,60.0,97,83,61,30.06,29.89,7,2,16,0.00
2013-8-2,80.3,71.4,63.8,68.0,63.9,62.0,97,79,54,29.89,29.81,8,2,16,0.20
2013-8-3,76.2,69.5,63.5,66.0,63.3,61.0,95,81,69,29.89,29.80,8,2,14,0.00
2013-8-4,77.7,67.2,57.0,60.0,57.1,54.0,93,72,50,29.90,29.79,10,2,16,0.00
2013-8-5,73.9,63.1,54.7,55.0,50.5,43.0,90,67,34,30.06,29.91,9,2,19,0.00
2013-8-6,78.3,65.0,50.5,56.0,52.5,49.0,97,68,39,30.16,30.06,9,1,9,0.00
2013-8-7,76.8,66.3,53.4,63.0,55.9,47.0,97,72,35,30.20,30.13,10,2,13,0.00
2013-8-8,78.7,71.8,64.9,71.0,66.8,59.0,93,84,76,30.14,30.02,10,3,16,0.00
2013-8-9,74.9,72.7,70.4,74.0,71.1,69.0,98,95,90,30.05,29.78,9,2,17,2.14
2013-8-10,80.8,73.1,62.0,73.0,62.1,51.0,98,71,41,30.02,29.81,8,2,18,0.00
2013-8-11,77.3,66.8,53.3,61.0,55.1,51.0,94,68,46,30.10,30.02,5,1,12,0.00
2013-8-12,80.3,70.0,59.8,64.0,60.8,57.0,96,75,47,30.05,29.93,8,1,12,0.00
2013-8-13,73.9,66.9,62.2,68.0,63.7,60.0,96,89,70,29.94,29.70,6,1,10,0.01
2013-8-14,71.5,65.2,58.2,64.0,55.3,51.0,96,72,53,29.99,29.69,16,3,22,0.00
2013-8-15,74.1,63.8,52.6,57.0,53.1,49.0,92,71,43,30.13,29.99,9,1,12,0.00
2013-8-16,77.5,65.8,52.8,60.0,55.5,52.0,96,72,46,30.21,30.13,8,1,11,0.00
2013-8-17,78.4,68.4,56.6,62.0,57.8,55.0,93,71,48,30.29,30.21,8,2,9,0.00
2013-8-18,78.2,66.6,57.0,64.0,59.5,54.0,97,80,46,30.29,30.11,5,1,8,0.03
2013-8-19,78.9,68.7,58.0,66.0,60.8,56.0,94,77,50,30.11,29.97,10,1,12,0.01
2013-8-20,82.7,73.1,63.1,66.0,62.8,57.0,93,72,42,30.11,30.00,6,2,10,0.00
2013-8-21,85.6,74.4,62.6,68.0,64.4,60.0,93,73,49,30.16,30.05,5,1,10,0.00
2013-8-22,84.0,73.0,64.7,72.0,68.3,63.0,96,85,65,30.06,29.85,7,2,15,0.00
2013-8-23,77.4,70.9,62.5,69.0,62.0,55.0,95,75,48,30.12,29.83,12,3,17,0.00
2013-8-24,73.8,63.9,53.9,55.0,50.5,46.0,87,65,38,30.35,30.12,8,3,14,0.00
2013-8-25,80.5,67.0,52.4,59.0,54.4,50.0,96,68,39,30.38,30.21,5,1,12,0.00
2013-8-26,77.7,70.0,64.3,67.0,62.4,58.0,90,77,62,30.21,29.90,9,2,14,0.01
2013-8-27,79.3,70.9,65.2,70.0,67.6,64.0,98,89,71,29.90,29.84,6,1,11,0.35
2013-8-28,83.0,72.5,61.2,70.0,65.9,61.0,98,81,55,29.95,29.85,6,1,10,0.00
2013-8-29,67.4,63.4,60.0,65.0,61.7,58.0,97,94,89,30.08,29.95,10,3,13,0.01
2013-8-30,80.1,68.0,59.0,69.0,63.5,57.0,95,86,68,30.05,29.86,7,2,11,0.00
2013-8-31,78.5,73.0,67.7,73.0,70.2,67.0,98,91,81,29.86,29.81,8,2,15,0.04
2013-9-1,79.5,71.9,68.5,74.0,65.0,-99.9,98,84,50,29.89,29.82,9,-20,10,0.21
2013-9-2,77.9,72.9,68.6,74.0,71.2,68.0,98,94,84,29.87,29.72,8,2,14,1.58
2013-9-3,79.1,71.4,62.1,71.0,68.0,59.0,98,89,70,29.84,29.71,6,1,17,0.00
2013-9-4,77.5,67.0,56.8,61.0,58.3,55.0,96,76,50,29.94,29.83,8,2,15,0.00
2013-9-5,68.5,62.3,52.0,64.0,56.4,50.0,95,82,58,30.15,29.88,8,2,22,0.06
2013-9-6,65.6,55.0,44.8,50.0,45.2,38.0,94,73,40,30.26,30.13,8,1,10,0.00
2013-9-7,76.2,62.2,46.5,58.0,51.4,45.0,93,70,44,30.13,29.89,7,1,11,0.00
2013-9-8,75.0,65.0,51.8,63.0,53.6,42.0,91,68,41,30.10,29.77,17,3,22,0.00
2013-9-9,66.9,56.0,42.7,51.0,45.7,41.0,94,71,47,30.26,30.11,6,1,12,0.00
2013-9-10,75.1,66.4,54.7,69.0,62.6,51.0,97,87,81,30.19,30.06,8,2,15,0.03
2013-9-11,91.9,82.1,67.5,78.0,73.7,67.0,98,77,54,30.09,29.97,10,2,13,0.01
2013-9-12,84.5,75.4,69.1,74.0,70.4,68.0,97,85,65,29.99,29.70,12,3,22,0.39
2013-9-13,77.3,69.1,60.5,68.0,64.7,55.0,98,86,65,29.77,29.58,7,2,16,0.10
2013-9-14,66.8,59.5,52.3,55.0,52.9,50.0,94,79,62,30.07,29.77,8,2,15,0.00
2013-9-15,69.4,58.0,48.1,54.0,50.3,47.0,95,77,52,30.18,30.07,8,1,9,0.00
2013-9-16,66.0,57.1,48.1,56.0,51.2,38.0,93,81,64,30.26,30.04,11,2,18,0.03
2013-9-17,60.2,49.4,38.5,44.0,38.9,36.0,95,70,42,30.43,30.26,10,3,15,0.00
2013-9-18,71.2,56.0,41.5,51.0,45.8,40.0,96,72,41,30.35,30.17,6,1,9,0.00
2013-9-19,77.0,61.7,49.2,58.0,51.6,46.0,92,72,43,30.17,30.05,6,1,9,0.00
2013-9-20,78.6,62.6,47.6,59.0,53.7,46.0,97,76,40,30.10,30.01,4,1,9,0.00
2013-9-21,74.1,64.5,52.9,67.0,60.6,52.0,98,88,62,30.05,29.73,15,3,19,0.01
2013-9-22,69.4,63.2,50.6,67.0,56.7,46.0,96,81,55,29.84,29.62,16,3,19,0.98
2013-9-23,62.9,52.7,44.9,46.0,42.5,39.0,88,70,51,30.02,29.84,13,3,18,0.00
2013-9-24,66.1,52.8,40.4,47.0,42.6,38.0,93,71,41,30.02,29.82,8,2,14,0.00
2013-9-25,48.9,47.4,45.7,45.0,44.8,44.0,92,90,87,29.93,29.91,1,0,2,0.00
2013-10-2,149.7,50.5,-90.0,18.0,-44.3,-99.9,1,1,1,29.96,29.85,0,0,0,0.00
2013-10-3,115.9,33.8,-90.0,50.0,-27.6,-99.9,93,22,1,30.09,29.96,2,-49,7,0.01
2013-10-4,58.4,43.0,46.8,58.0,23.4,-99.9,99,78,93,30.11,30.06,3,-11,8,0.54
2013-10-5,68.8,60.9,56.4,61.0,58.3,55.0,99,91,77,30.15,30.08,7,1,7,0.19
2013-10-6,59.5,57.5,55.4,57.0,56.0,55.0,98,95,90,30.23,30.13,7,2,10,0.35
2013-10-7,75.0,65.4,55.9,70.0,63.3,55.0,100,93,79,30.14,29.86,16,4,31,0.07
2013-10-8,65.1,56.5,47.3,56.0,47.1,40.0,93,73,42,30.39,29.94,13,2,17,0.00
2013-10-9,60.3,50.8,42.4,48.0,43.9,41.0,95,78,54,30.49,30.38,14,3,16,0.00
2013-10-10,62.6,52.6,44.0,55.0,49.7,43.0,98,90,76,30.38,30.18,10,3,12,0.00
2013-10-11,66.5,56.8,49.3,58.0,51.6,45.0,98,84,60,30.17,30.09,11,3,13,0.00
2013-10-12,63.8,54.9,48.4,57.0,52.0,47.0,97,90,78,30.38,30.14,15,4,18,0.00
2013-10-13,59.1,51.4,41.0,50.0,47.1,40.0,97,86,67,30.44,30.37,13,3,14,0.00
2013-10-14,63.9,47.9,34.7,49.0,41.9,34.0,99,82,44,30.42,30.27,5,1,7,0.01
2013-10-15,69.2,55.0,44.0,54.0,49.0,44.0,98,82,52,30.28,30.18,7,1,10,0.00
2013-10-16,60.2,53.0,44.1,56.0,51.5,44.0,99,95,85,30.18,29.93,6,1,7,0.00
2013-10-17,70.9,60.0,50.4,61.0,57.3,50.0,100,91,70,29.93,29.74,7,1,14,0.03
2013-10-18,66.0,59.8,45.8,62.0,51.4,43.0,98,76,50,29.93,29.64,14,3,22,0.02
2013-10-19,64.5,53.8,39.7,49.0,43.6,38.0,96,71,44,29.99,29.76,7,1,14,0.00
2013-10-20,60.6,52.7,40.2,51.0,40.9,33.0,96,68,36,30.04,29.71,16,2,20,0.00
2013-10-21,66.2,52.4,37.6,46.0,40.0,35.0,90,65,40,30.13,30.02,8,2,13,0.00
2013-10-22,67.8,53.4,40.3,53.0,46.3,40.0,98,79,49,30.01,29.71,9,2,21,0.00
2013-10-23,49.3,43.7,35.7,40.0,36.1,33.0,97,76,55,29.81,29.61,4,1,8,0.00
2013-10-24,51.0,43.8,36.2,36.0,30.7,25.0,88,62,37,29.91,29.67,12,2,25,0.00
2013-10-25,48.6,40.6,31.6,34.0,29.3,27.0,85,65,45,30.18,29.92,12,2,16,0.00
2013-10-26,53.7,42.9,27.9,39.0,31.4,26.0,96,67,38,30.18,29.90,16,3,25,0.00
2013-10-27,54.7,46.4,35.7,40.0,34.5,29.0,93,65,43,30.10,29.84,12,3,20,0.02
2013-10-28,58.4,44.3,29.1,35.0,32.1,27.0,95,65,41,30.36,30.10,13,2,18,0.00
2013-10-29,48.8,38.0,28.6,29.0,25.4,23.0,90,63,38,30.45,30.36,5,2,13,0.00
2013-10-30,54.6,40.8,28.5,43.0,36.3,26.0,97,84,64,30.39,30.21,6,0,10,0.00
2013-10-31,62.0,49.5,33.4,60.0,47.9,33.0,99,94,85,30.26,29.82,13,2,21,0.05
2013-11-1,68.9,63.6,59.2,63.0,58.8,55.0,96,84,71,29.81,29.49,18,6,35,0.09
2013-11-2,66.0,55.6,47.0,55.0,46.5,41.0,95,74,40,29.73,29.60,13,1,13,0.00
2013-11-3,51.9,41.8,31.8,47.0,31.2,17.0,87,68,40,30.42,29.73,11,4,17,0.00
2013-11-4,41.5,32.7,25.6,23.0,18.5,14.0,87,58,34,30.72,30.43,15,2,16,0.00
2013-11-5,50.2,37.1,24.1,35.0,27.9,22.0,91,72,45,30.73,30.54,5,1,11,0.00
2013-11-6,59.6,48.9,36.9,51.0,42.3,34.0,94,79,53,30.53,30.07,13,3,18,0.00
2013-11-7,65.8,53.6,37.9,59.0,50.6,34.0,97,89,73,30.07,29.70,20,3,21,0.32
2013-11-8,47.1,39.1,29.9,35.0,27.1,23.0,86,64,41,30.12,29.84,15,3,24,0.00
2013-11-9,43.9,36.6,27.7,30.0,25.6,22.0,86,66,45,30.23,30.06,8,2,15,0.00
2013-11-10,54.7,45.4,40.8,42.0,37.1,31.0,93,73,53,30.05,29.75,16,3,31,0.05
2013-11-11,50.8,44.8,38.2,35.0,29.3,26.0,64,55,40,30.13,29.91,13,4,25,0.00
2013-11-12,49.3,35.5,26.5,39.0,26.3,15.0,97,71,56,30.21,29.91,15,4,26,0.11
2013-11-13,34.9,27.8,21.0,17.0,14.7,10.0,82,59,39,30.31,30.20,13,3,20,0.00
2013-11-14,49.6,39.4,26.4,24.0,20.2,16.0,65,48,35,30.20,30.07,12,3,16,0.00
2013-11-15,60.9,46.9,36.7,36.0,23.8,15.0,86,43,22,30.22,30.14,15,2,15,0.00
2013-11-16,58.9,46.2,35.3,38.0,33.6,28.0,93,64,38,30.33,30.21,8,1,11,0.00
2013-11-17,57.7,47.3,33.5,58.0,45.3,32.0,99,93,76,30.32,29.85,7,2,9,0.09
2013-11-18,64.5,58.5,48.0,62.0,47.9,32.0,100,71,40,29.84,29.56,13,4,21,0.31
2013-11-19,47.9,39.8,31.2,32.0,23.4,18.0,61,52,44,30.28,29.68,18,6,29,0.00
2013-11-20,40.6,31.6,24.7,18.0,14.9,9.0,75,52,28,30.64,30.29,11,4,18,0.00
2013-11-21,46.5,33.9,20.3,34.0,22.4,17.0,88,65,38,30.65,30.41,8,1,10,0.00
2013-11-22,49.5,45.7,41.1,49.0,43.3,34.0,98,91,76,30.40,29.84,6,1,9,0.15
2013-11-23,49.0,40.1,28.4,47.0,27.1,16.0,94,61,34,29.93,29.81,13,5,26,0.00
2013-11-24,28.1,23.0,20.0,17.0,3.9,-4.0,64,45,27,30.23,29.84,23,9,35,0.00
2013-11-25,32.3,24.4,15.8,21.0,5.0,-6.0,66,45,23,30.40,30.23,12,4,19,0.00
2013-11-26,40.9,36.6,32.3,39.0,25.0,18.0,97,65,46,30.34,30.03,11,2,15,0.19
2013-11-27,61.2,50.4,35.3,61.0,50.1,34.0,100,99,93,30.01,29.24,33,7,39,2.61
2013-11-28,36.4,29.5,23.1,33.0,16.3,8.0,92,59,38,30.46,29.51,19,5,28,0.00
2013-11-29,33.4,27.1,20.7,17.0,12.7,5.0,72,56,42,30.75,30.46,9,2,14,0.00
2013-11-30,32.9,24.2,13.9,24.0,14.9,7.0,84,68,49,30.81,30.45,9,2,14,0.00
2013-12-1,38.3,33.7,29.1,38.0,31.9,24.0,99,93,80,30.43,30.02,6,2,10,0.14
2013-12-2,39.8,36.4,33.2,39.0,36.0,33.0,100,99,95,30.02,29.93,5,2,9,0.01
2013-12-3,49.1,38.5,32.1,38.0,34.7,31.0,100,87,58,29.97,29.85,9,3,15,0.00
2013-12-4,47.3,35.5,29.6,32.0,29.9,28.0,96,81,52,30.21,29.97,10,1,12,0.00
2013-12-5,54.3,42.9,30.9,54.0,41.7,29.0,100,95,89,30.21,29.95,5,1,17,0.00
2013-12-6,56.8,48.8,35.1,57.0,47.3,34.0,100,94,86,30.14,29.88,8,3,15,0.42
2013-12-7,37.5,33.2,27.3,34.0,28.7,23.0,99,84,63,30.47,30.08,13,3,17,0.16
2013-12-8,29.9,26.9,20.3,23.0,19.1,16.0,94,73,58,30.61,30.47,6,1,7,0.00
2013-12-9,36.5,31.9,24.8,36.0,30.9,19.0,100,96,68,30.50,29.91,8,2,14,0.32
2013-12-10,33.1,30.2,23.4,33.0,29.0,20.0,99,95,81,30.04,29.81,11,1,13,0.00
2013-12-11,28.2,21.6,21.6,21.0,1.9,-99.9,88,66,70,30.25,30.04,15,-142,19,0.00
2013-12-12,24.1,19.6,13.6,18.0,9.0,3.0,91,65,43,30.30,30.10,13,2,16,0.00
2013-12-13,28.9,22.4,16.0,18.0,12.0,7.0,88,65,52,30.38,30.04,15,4,21,0.00
2013-12-14,26.8,15.0,10.9,26.0,7.2,-4.0,97,72,48,30.61,30.13,9,3,13,0.00
2013-12-15,36.1,28.4,22.8,36.0,26.7,21.0,99,93,81,30.12,29.42,14,5,25,0.00
2013-12-16,26.9,23.0,10.2,22.0,13.3,7.0,91,68,47,30.23,29.77,13,3,23,0.00
2013-12-17,19.4,12.6,3.9,18.0,10.3,2.0,94,90,83,30.29,29.94,14,3,19,0.00
2013-12-18,32.9,25.6,16.9,22.0,19.7,15.0,93,79,59,30.12,29.88,13,4,19,0.00
2013-12-19,44.5,34.5,26.5,28.0,24.3,20.0,79,67,49,30.15,29.98,14,3,22,0.05
2013-12-20,54.2,41.8,30.8,39.0,33.1,28.0,90,72,50,30.14,29.94,8,2,17,0.00
2013-12-21,59.7,50.7,43.8,53.0,46.0,37.0,93,84,69,30.00,29.89,8,2,15,0.00
2013-12-22,64.5,55.9,38.7,61.0,53.3,38.0,97,91,82,30.01,29.77,15,4,24,0.00
2013-12-23,39.1,35.7,33.2,39.0,35.6,33.0,100,99,96,30.09,29.95,9,2,14,0.62
2013-12-24,38.5,32.5,26.6,37.0,23.7,13.0,95,71,49,30.22,30.05,12,5,22,0.00
2013-12-25,26.3,18.9,15.1,14.0,5.6,2.0,80,57,44,30.56,30.22,13,4,23,0.00
2013-12-26,33.2,25.8,15.7,30.0,21.9,11.0,95,85,76,30.51,30.11,4,1,12,0.00
2013-12-27,35.2,28.8,24.3,23.0,20.7,19.0,88,72,55,30.31,30.22,7,2,14,0.00
2013-12-28,47.7,35.8,23.5,29.0,25.8,20.0,89,69,45,30.25,30.03,12,2,19,0.00
2013-12-29,43.7,36.6,29.7,40.0,33.5,26.0,100,89,70,30.05,29.39,12,2,21,1.09
2013-12-30,38.8,31.9,19.1,37.0,24.7,10.0,100,77,50,30.16,29.55,11,3,25,0.00
2013-12-31,25.6,19.4,13.9,16.0,9.6,2.0,80,66,48,30.21,30.04,7,2,13,0.00
2014-1-1,27.5,21.5,12.8,15.0,9.6,5.0,81,61,46,30.40,30.22,8,2,19,0.00
2014-1-2,20.9,13.4,1.0,17.0,11.0,-2.0,92,90,73,30.37,29.81,18,6,25,0.00